sensor_id;sensor_type;location;lat;lon;timestamp;P1;durP1;ratioP1;P2;durP2;ratioP2
32096;SDS011;18610;49.916;8.284;2023-11-21T16:26:22;14.10;;;7.63;;
32096;SDS011;18610;49.916;8.284;2023-11-21T16:28:48;16.67;;;6.43;;
32096;SDS011;18610;49.916;8.284;2023-11-21T16:31:21;10.73;;;6.68;;
32096;SDS011;18610;49.916;8.284;2023-11-21T16:33:48;17.73;;;8.00;;
32096;SDS011;18610;49.916;8.284;2023-11-21T16:36:14;20.88;;;7.97;;
32096;SDS011;18610;49.916;8.284;2023-11-21T16:38:42;16.80;;;8.52;;
32096;SDS011;18610;49.916;8.284;2023-11-21T16:41:08;14.43;;;7.72;;
32096;SDS011;18610;49.916;8.284;2023-11-21T16:43:37;16.02;;;8.02;;
32096;SDS011;18610;49.916;8.284;2023-11-21T16:46:03;12.75;;;7.93;;
32096;SDS011;18610;49.916;8.284;2023-11-21T16:48:30;15.85;;;7.47;;
32096;SDS011;18610;49.916;8.284;2023-11-21T16:50:57;17.98;;;8.90;;
32096;SDS011;18610;49.916;8.284;2023-11-21T16:53:24;16.27;;;7.82;;
32096;SDS011;18610;49.916;8.284;2023-11-21T16:55:51;16.48;;;8.68;;
32096;SDS011;18610;49.916;8.284;2023-11-21T16:58:18;24.38;;;9.10;;
32096;SDS011;18610;49.916;8.284;2023-11-21T17:00:46;19.75;;;9.73;;
32096;SDS011;18610;49.916;8.284;2023-11-21T17:03:13;21.48;;;10.43;;
32096;SDS011;18610;49.916;8.284;2023-11-21T17:05:39;25.42;;;10.90;;
32096;SDS011;18610;49.916;8.284;2023-11-21T17:08:06;21.00;;;10.10;;
32096;SDS011;18610;49.916;8.284;2023-11-21T17:10:35;22.73;;;10.65;;
32096;SDS011;18610;49.916;8.284;2023-11-21T17:13:03;22.58;;;11.88;;
32096;SDS011;18610;49.916;8.284;2023-11-21T17:15:31;19.00;;;9.50;;
32096;SDS011;18610;49.916;8.284;2023-11-21T17:17:59;21.33;;;11.38;;
32096;SDS011;18610;49.916;8.284;2023-11-21T17:20:27;24.65;;;11.88;;
32096;SDS011;18610;49.916;8.284;2023-11-21T17:22:53;22.13;;;11.68;;
32096;SDS011;18610;49.916;8.284;2023-11-21T17:25:21;21.13;;;10.52;;
32096;SDS011;18610;49.916;8.284;2023-11-21T17:27:47;33.72;;;12.10;;
32096;SDS011;18610;49.916;8.284;2023-11-21T17:30:16;20.52;;;10.10;;
32096;SDS011;18610;49.916;8.284;2023-11-21T17:32:44;20.70;;;10.15;;
32096;SDS011;18610;49.916;8.284;2023-11-21T17:35:12;21.70;;;10.40;;
32096;SDS011;18610;49.916;8.284;2023-11-21T17:37:39;19.70;;;9.95;;
32096;SDS011;18610;49.916;8.284;2023-11-21T17:40:06;22.80;;;10.48;;
32096;SDS011;18610;49.916;8.284;2023-11-21T17:42:33;29.80;;;9.63;;
32096;SDS011;18610;49.916;8.284;2023-11-21T17:45:00;20.52;;;11.07;;
32096;SDS011;18610;49.916;8.284;2023-11-21T17:47:27;31.48;;;10.93;;
32096;SDS011;18610;49.916;8.284;2023-11-21T17:49:53;22.48;;;10.77;;
32096;SDS011;18610;49.916;8.284;2023-11-21T17:52:21;24.10;;;12.50;;
32096;SDS011;18610;49.916;8.284;2023-11-21T17:54:49;22.98;;;10.82;;
32096;SDS011;18610;49.916;8.284;2023-11-21T17:57:16;26.75;;;10.55;;
32096;SDS011;18610;49.916;8.284;2023-11-21T17:59:43;23.70;;;11.20;;
32096;SDS011;18610;49.916;8.284;2023-11-21T18:02:12;35.22;;;12.30;;
32096;SDS011;18610;49.916;8.284;2023-11-21T18:04:39;22.52;;;11.10;;
32096;SDS011;18610;49.916;8.284;2023-11-21T18:07:05;23.85;;;11.40;;
32096;SDS011;18610;49.916;8.284;2023-11-21T18:09:33;25.45;;;11.90;;
32096;SDS011;18610;49.916;8.284;2023-11-21T18:12:00;29.20;;;12.65;;
32096;SDS011;18610;49.916;8.284;2023-11-21T18:14:27;27.70;;;12.77;;
32096;SDS011;18610;49.916;8.284;2023-11-21T18:16:54;23.73;;;13.25;;
32096;SDS011;18610;49.916;8.284;2023-11-21T18:19:22;33.58;;;12.63;;
32096;SDS011;18610;49.916;8.284;2023-11-21T18:21:48;31.95;;;13.27;;
32096;SDS011;18610;49.916;8.284;2023-11-21T18:24:15;25.75;;;12.30;;
32096;SDS011;18610;49.916;8.284;2023-11-21T18:26:43;24.70;;;12.48;;
32096;SDS011;18610;49.916;8.284;2023-11-21T18:29:11;26.50;;;12.65;;
32096;SDS011;18610;49.916;8.284;2023-11-21T18:31:42;25.55;;;11.82;;
32096;SDS011;18610;49.916;8.284;2023-11-21T18:34:09;30.40;;;12.10;;
32096;SDS011;18610;49.916;8.284;2023-11-21T18:36:35;24.25;;;13.13;;
32096;SDS011;18610;49.916;8.284;2023-11-21T18:39:02;26.88;;;13.23;;
32096;SDS011;18610;49.916;8.284;2023-11-21T18:41:29;29.67;;;13.02;;
32096;SDS011;18610;49.916;8.284;2023-11-21T18:43:58;32.30;;;12.70;;
32096;SDS011;18610;49.916;8.284;2023-11-21T18:46:24;33.80;;;13.75;;
32096;SDS011;18610;49.916;8.284;2023-11-21T18:48:51;22.85;;;11.73;;
32096;SDS011;18610;49.916;8.284;2023-11-21T18:51:18;33.50;;;14.05;;
32096;SDS011;18610;49.916;8.284;2023-11-21T18:53:44;21.80;;;12.45;;
32096;SDS011;18610;49.916;8.284;2023-11-21T18:56:18;25.70;;;12.93;;
32096;SDS011;18610;49.916;8.284;2023-11-21T18:58:48;25.13;;;12.45;;
32096;SDS011;18610;49.916;8.284;2023-11-21T19:01:24;28.73;;;12.55;;
32096;SDS011;18610;49.916;8.284;2023-11-21T19:03:52;24.90;;;12.30;;
32096;SDS011;18610;49.916;8.284;2023-11-21T19:06:19;22.25;;;10.70;;
32096;SDS011;18610;49.916;8.284;2023-11-21T19:08:46;17.15;;;10.55;;
32096;SDS011;18610;49.916;8.284;2023-11-21T19:11:13;21.10;;;10.90;;
32096;SDS011;18610;49.916;8.284;2023-11-21T19:13:40;18.08;;;9.73;;
32096;SDS011;18610;49.916;8.284;2023-11-21T19:16:06;20.95;;;10.48;;
32096;SDS011;18610;49.916;8.284;2023-11-21T19:18:34;26.15;;;10.00;;
32096;SDS011;18610;49.916;8.284;2023-11-21T19:21:01;21.30;;;9.25;;
32096;SDS011;18610;49.916;8.284;2023-11-21T19:23:28;16.95;;;9.65;;
32096;SDS011;18610;49.916;8.284;2023-11-21T19:25:55;16.45;;;8.98;;
32096;SDS011;18610;49.916;8.284;2023-11-21T19:28:21;17.90;;;9.73;;
32096;SDS011;18610;49.916;8.284;2023-11-21T19:30:48;17.27;;;9.77;;
32096;SDS011;18610;49.916;8.284;2023-11-21T19:33:15;22.23;;;10.55;;
32096;SDS011;18610;49.916;8.284;2023-11-21T19:35:43;21.10;;;10.38;;
32096;SDS011;18610;49.916;8.284;2023-11-21T19:38:10;20.77;;;10.13;;
32096;SDS011;18610;49.916;8.284;2023-11-21T19:40:37;18.35;;;8.73;;
32096;SDS011;18610;49.916;8.284;2023-11-21T19:43:05;18.35;;;9.20;;
32096;SDS011;18610;49.916;8.284;2023-11-21T19:45:32;14.52;;;7.82;;
32096;SDS011;18610;49.916;8.284;2023-11-21T19:47:59;12.38;;;6.25;;
32096;SDS011;18610;49.916;8.284;2023-11-21T19:50:27;8.52;;;4.65;;
32096;SDS011;18610;49.916;8.284;2023-11-21T19:52:55;7.10;;;4.53;;
32096;SDS011;18610;49.916;8.284;2023-11-21T19:55:22;4.57;;;3.60;;
32096;SDS011;18610;49.916;8.284;2023-11-21T19:57:49;5.68;;;3.55;;
32096;SDS011;18610;49.916;8.284;2023-11-21T20:00:16;5.40;;;3.40;;
32096;SDS011;18610;49.916;8.284;2023-11-21T20:02:43;4.65;;;3.67;;
32096;SDS011;18610;49.916;8.284;2023-11-21T20:05:10;3.53;;;3.13;;
32096;SDS011;18610;49.916;8.284;2023-11-21T20:07:39;4.75;;;3.83;;
32096;SDS011;18610;49.916;8.284;2023-11-21T20:10:08;3.40;;;3.10;;
32096;SDS011;18610;49.916;8.284;2023-11-21T20:12:35;3.47;;;2.80;;
32096;SDS011;18610;49.916;8.284;2023-11-21T20:15:02;3.83;;;2.67;;
32096;SDS011;18610;49.916;8.284;2023-11-21T20:17:30;2.72;;;2.30;;
32096;SDS011;18610;49.916;8.284;2023-11-21T20:19:57;7.88;;;3.20;;
32096;SDS011;18610;49.916;8.284;2023-11-21T20:22:24;6.28;;;2.90;;
32096;SDS011;18610;49.916;8.284;2023-11-21T20:24:51;10.15;;;3.10;;
32096;SDS011;18610;49.916;8.284;2023-11-21T20:27:19;3.63;;;3.00;;
32096;SDS011;18610;49.916;8.284;2023-11-21T20:29:45;4.20;;;3.28;;
32096;SDS011;18610;49.916;8.284;2023-11-21T20:32:12;5.38;;;3.25;;
32096;SDS011;18610;49.916;8.284;2023-11-21T20:34:39;6.05;;;2.95;;
32096;SDS011;18610;49.916;8.284;2023-11-21T20:37:06;6.80;;;4.03;;
32096;SDS011;18610;49.916;8.284;2023-11-21T20:39:32;5.45;;;2.97;;
32096;SDS011;18610;49.916;8.284;2023-11-21T20:42:01;5.82;;;3.58;;
32096;SDS011;18610;49.916;8.284;2023-11-21T20:44:29;6.30;;;3.33;;
32096;SDS011;18610;49.916;8.284;2023-11-21T20:46:56;6.78;;;3.55;;
32096;SDS011;18610;49.916;8.284;2023-11-21T20:49:23;4.65;;;3.88;;
32096;SDS011;18610;49.916;8.284;2023-11-21T20:51:49;5.93;;;4.05;;
32096;SDS011;18610;49.916;8.284;2023-11-21T20:54:16;8.15;;;4.50;;
32096;SDS011;18610;49.916;8.284;2023-11-21T20:56:43;7.38;;;4.82;;
32096;SDS011;18610;49.916;8.284;2023-11-21T20:59:09;8.15;;;4.80;;
32096;SDS011;18610;49.916;8.284;2023-11-21T21:01:37;11.52;;;5.68;;
32096;SDS011;18610;49.916;8.284;2023-11-21T21:04:04;8.02;;;5.35;;
32096;SDS011;18610;49.916;8.284;2023-11-21T21:06:32;6.05;;;4.63;;
32096;SDS011;18610;49.916;8.284;2023-11-21T21:08:59;7.82;;;5.28;;
32096;SDS011;18610;49.916;8.284;2023-11-21T21:11:27;8.20;;;5.30;;
32096;SDS011;18610;49.916;8.284;2023-11-21T21:13:56;8.57;;;5.68;;
32096;SDS011;18610;49.916;8.284;2023-11-21T21:16:23;8.43;;;5.45;;
32096;SDS011;18610;49.916;8.284;2023-11-21T21:18:52;6.80;;;4.90;;
32096;SDS011;18610;49.916;8.284;2023-11-21T21:21:20;8.20;;;5.15;;
32096;SDS011;18610;49.916;8.284;2023-11-21T21:23:47;6.25;;;5.10;;
32096;SDS011;18610;49.916;8.284;2023-11-21T21:26:14;9.23;;;5.65;;
32096;SDS011;18610;49.916;8.284;2023-11-21T21:28:42;11.50;;;6.03;;
32096;SDS011;18610;49.916;8.284;2023-11-21T21:31:10;9.50;;;6.05;;
32096;SDS011;18610;49.916;8.284;2023-11-21T21:33:38;8.77;;;6.03;;
32096;SDS011;18610;49.916;8.284;2023-11-21T21:36:06;8.77;;;5.35;;
32096;SDS011;18610;49.916;8.284;2023-11-21T21:38:35;9.77;;;6.25;;
32096;SDS011;18610;49.916;8.284;2023-11-21T21:41:04;8.35;;;5.60;;
32096;SDS011;18610;49.916;8.284;2023-11-21T21:43:32;9.32;;;6.80;;
32096;SDS011;18610;49.916;8.284;2023-11-21T21:45:59;8.43;;;5.65;;
32096;SDS011;18610;49.916;8.284;2023-11-21T21:48:25;10.10;;;6.32;;
32096;SDS011;18610;49.916;8.284;2023-11-21T21:50:53;8.32;;;5.82;;
32096;SDS011;18610;49.916;8.284;2023-11-21T21:53:21;10.23;;;6.43;;
32096;SDS011;18610;49.916;8.284;2023-11-21T21:55:48;10.30;;;6.20;;
32096;SDS011;18610;49.916;8.284;2023-11-21T21:58:16;11.55;;;6.00;;
32096;SDS011;18610;49.916;8.284;2023-11-21T22:00:42;7.70;;;5.75;;
32096;SDS011;18610;49.916;8.284;2023-11-21T22:03:09;9.90;;;6.00;;
32096;SDS011;18610;49.916;8.284;2023-11-21T22:05:36;8.98;;;5.32;;
32096;SDS011;18610;49.916;8.284;2023-11-21T22:08:03;9.07;;;5.65;;
32096;SDS011;18610;49.916;8.284;2023-11-21T22:10:31;9.27;;;5.00;;
32096;SDS011;18610;49.916;8.284;2023-11-21T22:12:58;8.02;;;5.60;;
32096;SDS011;18610;49.916;8.284;2023-11-21T22:15:24;8.38;;;4.47;;
32096;SDS011;18610;49.916;8.284;2023-11-21T22:17:51;7.53;;;4.63;;
32096;SDS011;18610;49.916;8.284;2023-11-21T22:20:18;7.00;;;4.45;;
32096;SDS011;18610;49.916;8.284;2023-11-21T22:22:47;5.82;;;3.95;;
32096;SDS011;18610;49.916;8.284;2023-11-21T22:25:13;8.15;;;4.75;;
32096;SDS011;18610;49.916;8.284;2023-11-21T22:27:42;12.23;;;5.50;;
32096;SDS011;18610;49.916;8.284;2023-11-21T22:30:09;10.23;;;4.35;;
32096;SDS011;18610;49.916;8.284;2023-11-21T22:32:36;7.00;;;4.95;;
32096;SDS011;18610;49.916;8.284;2023-11-21T22:35:03;6.50;;;4.40;;
32096;SDS011;18610;49.916;8.284;2023-11-21T22:37:30;6.25;;;4.03;;
32096;SDS011;18610;49.916;8.284;2023-11-21T22:39:57;5.72;;;4.18;;
32096;SDS011;18610;49.916;8.284;2023-11-21T22:42:24;6.60;;;3.50;;
32096;SDS011;18610;49.916;8.284;2023-11-21T22:44:52;10.57;;;3.85;;
32096;SDS011;18610;49.916;8.284;2023-11-21T22:47:18;4.45;;;3.72;;
32096;SDS011;18610;49.916;8.284;2023-11-21T22:49:48;5.90;;;3.88;;
32096;SDS011;18610;49.916;8.284;2023-11-21T22:52:15;6.60;;;3.90;;
32096;SDS011;18610;49.916;8.284;2023-11-21T22:54:41;7.15;;;4.30;;
32096;SDS011;18610;49.916;8.284;2023-11-21T22:57:08;5.82;;;3.95;;
32096;SDS011;18610;49.916;8.284;2023-11-21T22:59:35;6.45;;;4.13;;
32096;SDS011;18610;49.916;8.284;2023-11-21T23:02:03;6.40;;;4.47;;
32096;SDS011;18610;49.916;8.284;2023-11-21T23:04:30;7.43;;;4.78;;
32096;SDS011;18610;49.916;8.284;2023-11-21T23:06:57;22.73;;;14.65;;
32096;SDS011;18610;49.916;8.284;2023-11-21T23:09:24;17.08;;;10.80;;
32096;SDS011;18610;49.916;8.284;2023-11-21T23:11:51;16.08;;;11.23;;
32096;SDS011;18610;49.916;8.284;2023-11-21T23:14:18;14.10;;;8.60;;
32096;SDS011;18610;49.916;8.284;2023-11-21T23:16:44;13.95;;;8.88;;
32096;SDS011;18610;49.916;8.284;2023-11-21T23:19:14;10.70;;;5.80;;
32096;SDS011;18610;49.916;8.284;2023-11-21T23:21:42;22.02;;;9.82;;
32096;SDS011;18610;49.916;8.284;2023-11-21T23:24:09;8.18;;;4.82;;
32096;SDS011;18610;49.916;8.284;2023-11-21T23:26:38;7.30;;;4.47;;
32096;SDS011;18610;49.916;8.284;2023-11-21T23:29:07;6.00;;;4.07;;
32096;SDS011;18610;49.916;8.284;2023-11-21T23:31:34;7.45;;;3.90;;
32096;SDS011;18610;49.916;8.284;2023-11-21T23:34:01;6.90;;;3.92;;
32096;SDS011;18610;49.916;8.284;2023-11-21T23:36:30;6.25;;;4.10;;
32096;SDS011;18610;49.916;8.284;2023-11-21T23:38:56;8.50;;;4.30;;
32096;SDS011;18610;49.916;8.284;2023-11-21T23:41:23;6.45;;;4.45;;
32096;SDS011;18610;49.916;8.284;2023-11-21T23:43:50;7.50;;;3.67;;
32096;SDS011;18610;49.916;8.284;2023-11-21T23:46:16;5.75;;;3.70;;
32096;SDS011;18610;49.916;8.284;2023-11-21T23:48:44;6.07;;;3.75;;
32096;SDS011;18610;49.916;8.284;2023-11-21T23:51:10;7.53;;;3.33;;
32096;SDS011;18610;49.916;8.284;2023-11-21T23:53:39;6.05;;;3.78;;
32096;SDS011;18610;49.916;8.284;2023-11-21T23:56:06;9.35;;;3.80;;
32096;SDS011;18610;49.916;8.284;2023-11-21T23:58:32;4.97;;;3.22;;
